createdAt,value
2023-02-18T00:02:19.509Z,1.70
2023-02-18T00:05:05.404Z,2.30
2023-02-18T00:07:50.920Z,1.83
2023-02-18T00:10:36.283Z,3.88
2023-02-18T00:13:21.674Z,2.35
2023-02-18T00:16:10.489Z,2.47
2023-02-18T00:19:00.896Z,1.83
2023-02-18T00:21:47.144Z,2.45
2023-02-18T00:24:32.295Z,2.60
2023-02-18T00:27:17.859Z,2.17
2023-02-18T00:30:04.781Z,2.25
2023-02-18T00:32:51.891Z,2.78
2023-02-18T00:35:37.552Z,2.83
2023-02-18T00:38:22.965Z,2.25
2023-02-18T00:41:08.360Z,2.42
2023-02-18T00:43:54.989Z,2.30
2023-02-18T00:46:40.935Z,2.10
2023-02-18T00:49:26.622Z,1.67
2023-02-18T00:52:11.958Z,2.30
2023-02-18T00:54:59.438Z,2.67
2023-02-18T00:57:44.804Z,2.83
2023-02-18T01:00:30.145Z,2.75
2023-02-18T01:03:15.952Z,2.15
2023-02-18T01:06:01.301Z,2.15
2023-02-18T01:08:46.723Z,2.10
2023-02-18T01:11:32.435Z,1.98
2023-02-18T01:14:18.096Z,2.55
2023-02-18T01:17:03.626Z,2.15
2023-02-18T01:19:48.837Z,2.45
2023-02-18T01:22:34.309Z,2.13
2023-02-18T01:25:19.943Z,2.60
2023-02-18T01:28:07.721Z,3.72
2023-02-18T01:30:54.741Z,2.67
2023-02-18T01:33:40.817Z,2.20
2023-02-18T01:36:26.355Z,2.28
2023-02-18T01:39:14.859Z,2.20
2023-02-18T01:42:00.570Z,2.17
2023-02-18T01:44:48.484Z,2.40
2023-02-18T01:47:33.711Z,2.50
2023-02-18T01:50:19.217Z,2.90
2023-02-18T01:53:05.080Z,3.13
2023-02-18T01:55:50.674Z,3.08
2023-02-18T01:58:36.834Z,4.50
2023-02-18T02:01:23.065Z,5.22
2023-02-18T02:04:08.653Z,4.93
2023-02-18T02:06:54.469Z,3.58
2023-02-18T02:09:42.912Z,5.65
2023-02-18T02:12:34.464Z,4.00
2023-02-18T02:15:59.811Z,4.82
2023-02-18T02:18:57.597Z,3.28
2023-02-18T02:21:55.615Z,4.28
2023-02-18T02:25:00.714Z,3.17
2023-02-18T02:28:08.718Z,3.28
2023-02-18T02:31:26.835Z,3.67
2023-02-18T02:34:27.353Z,2.72
2023-02-18T02:37:34.429Z,3.25
2023-02-18T02:40:46.329Z,3.40
2023-02-18T02:43:50.373Z,3.08
2023-02-18T02:46:41.199Z,2.97
2023-02-18T02:49:32.638Z,3.13
2023-02-18T02:52:23.819Z,2.58
2023-02-18T02:55:12.247Z,3.40
2023-02-18T02:58:00.051Z,4.30
2023-02-18T03:01:03.686Z,4.00
2023-02-18T03:04:10.612Z,5.03
2023-02-18T03:07:01.177Z,3.30
2023-02-18T03:10:18.239Z,4.40
2023-02-18T03:13:32.597Z,3.60
2023-02-18T03:16:24.245Z,4.50
2023-02-18T03:19:18.684Z,3.30
2023-02-18T03:22:20.571Z,7.13
2023-02-18T03:25:06.245Z,4.78
2023-02-18T03:28:00.255Z,5.72
2023-02-18T03:30:53.082Z,4.05
2023-02-18T03:33:45.756Z,4.57
2023-02-18T03:36:33.274Z,4.57
2023-02-18T03:39:21.300Z,4.15
2023-02-18T03:42:07.529Z,5.35
2023-02-18T03:44:53.268Z,4.30
2023-02-18T03:47:41.189Z,5.85
2023-02-18T03:50:26.728Z,4.22
2023-02-18T03:53:12.249Z,3.85
2023-02-18T03:55:57.754Z,5.35
2023-02-18T03:58:43.148Z,4.57
2023-02-18T04:01:28.948Z,5.03
2023-02-18T04:04:14.487Z,6.13
2023-02-18T04:06:59.727Z,5.70
2023-02-18T04:09:45.266Z,7.80
2023-02-18T04:12:30.887Z,8.63
2023-02-18T04:15:16.500Z,8.82
2023-02-18T04:18:02.183Z,8.32
2023-02-18T04:20:47.828Z,7.32
2023-02-18T04:23:33.707Z,5.68
2023-02-18T04:26:19.565Z,5.88
2023-02-18T04:29:05.405Z,4.75
2023-02-18T04:31:50.828Z,4.88
2023-02-18T04:34:36.491Z,3.78
2023-02-18T04:37:22.169Z,6.10
2023-02-18T04:40:08.368Z,2.78
2023-02-18T04:42:53.766Z,3.13
2023-02-18T04:45:39.269Z,4.22
2023-02-18T04:48:24.727Z,2.33
2023-02-18T04:51:10.248Z,2.70
2023-02-18T04:53:55.572Z,3.92
2023-02-18T04:56:40.948Z,2.03
2023-02-18T04:59:26.530Z,5.13
2023-02-18T05:02:11.862Z,1.60
2023-02-18T05:04:57.319Z,1.83
2023-02-18T05:07:42.944Z,3.13
2023-02-18T05:10:28.659Z,3.50
2023-02-18T05:13:14.201Z,1.52
2023-02-18T05:16:00.596Z,4.35
2023-02-18T05:18:46.217Z,1.58
2023-02-18T05:21:31.941Z,1.58
2023-02-18T05:24:17.690Z,2.10
2023-02-18T05:27:03.442Z,2.92
2023-02-18T05:29:49.029Z,3.10
2023-02-18T05:32:34.539Z,7.00
2023-02-18T05:35:19.719Z,4.20
2023-02-18T05:38:05.266Z,6.03
2023-02-18T05:40:50.805Z,5.80
2023-02-18T05:43:56.299Z,7.55
2023-02-18T05:46:41.810Z,4.45
2023-02-18T05:49:29.257Z,6.35
2023-02-18T05:52:14.410Z,3.42
2023-02-18T05:54:59.589Z,3.45
2023-02-18T05:57:44.980Z,3.13
2023-02-18T06:00:31.788Z,3.60
2023-02-18T06:03:17.158Z,5.95
2023-02-18T06:06:02.565Z,3.60
2023-02-18T06:08:47.917Z,5.45
2023-02-18T06:11:33.286Z,5.50
2023-02-18T06:14:18.955Z,6.40
2023-02-18T06:17:04.697Z,3.17
2023-02-18T06:19:50.106Z,6.25
2023-02-18T06:22:35.664Z,2.72
2023-02-18T06:25:21.180Z,18.58
2023-02-18T06:28:07.239Z,49.10
2023-02-18T06:30:53.136Z,4.90
2023-02-18T06:33:38.823Z,6.35
2023-02-18T06:36:24.304Z,3.28
2023-02-18T06:39:09.610Z,4.70
2023-02-18T06:41:54.900Z,3.53
2023-02-18T06:44:40.383Z,3.45
2023-02-18T06:47:25.547Z,3.47
2023-02-18T06:50:11.307Z,4.45
2023-02-18T06:52:57.191Z,2.10
2023-02-18T06:55:43.597Z,11.98
2023-02-18T06:58:29.170Z,3.42
2023-02-18T07:01:14.500Z,5.30
2023-02-18T07:03:59.839Z,3.25
2023-02-18T07:06:45.278Z,2.47
2023-02-18T07:09:30.855Z,6.95
2023-02-18T07:12:16.525Z,3.05
2023-02-18T07:15:01.823Z,1.77
2023-02-18T07:17:47.147Z,1.55
2023-02-18T07:20:33.105Z,4.22
2023-02-18T07:23:18.951Z,1.75
2023-02-18T07:26:09.336Z,2.45
2023-02-18T07:28:54.981Z,1.42
2023-02-18T07:31:40.418Z,1.77
2023-02-18T07:34:26.462Z,2.30
2023-02-18T07:37:12.566Z,4.95
2023-02-18T07:39:58.627Z,2.30
2023-02-18T07:42:45.919Z,5.00
2023-02-18T07:45:31.811Z,3.35
2023-02-18T07:48:18.952Z,4.30
2023-02-18T07:51:07.483Z,2.30
2023-02-18T07:53:53.137Z,6.43
2023-02-18T07:56:39.303Z,2.40
2023-02-18T07:59:24.710Z,1.63
2023-02-18T08:02:24.083Z,3.80
2023-02-18T08:05:10.835Z,8.68
2023-02-18T08:07:56.654Z,3.95
2023-02-18T08:10:43.043Z,2.70
2023-02-18T08:13:30.068Z,5.60
2023-02-18T08:16:17.116Z,3.47
2023-02-18T08:19:04.009Z,4.22
2023-02-18T08:21:49.434Z,3.83
2023-02-18T08:24:34.778Z,1.55
2023-02-18T08:27:20.418Z,3.85
2023-02-18T08:30:08.310Z,5.93
2023-02-18T08:32:53.817Z,5.07
2023-02-18T08:35:41.228Z,5.50
2023-02-18T08:38:27.038Z,3.95
2023-02-18T08:41:14.613Z,5.05
2023-02-18T08:44:00.244Z,4.35
2023-02-18T08:46:48.104Z,4.22
2023-02-18T08:49:33.768Z,7.28
2023-02-18T08:52:19.420Z,4.40
2023-02-18T08:55:06.008Z,2.63
2023-02-18T08:57:52.384Z,3.35
2023-02-18T09:00:40.114Z,10.65
2023-02-18T09:03:27.035Z,2.30
2023-02-18T09:06:12.340Z,5.15
2023-02-18T09:08:58.054Z,3.92
2023-02-18T09:11:43.865Z,9.88
2023-02-18T09:14:29.628Z,9.35
2023-02-18T09:17:15.480Z,5.97
2023-02-18T09:20:01.013Z,7.50
2023-02-18T09:22:46.786Z,6.07
2023-02-18T09:25:32.180Z,7.30
2023-02-18T09:28:17.802Z,1.45
2023-02-18T09:31:08.871Z,1.77
2023-02-18T09:34:03.370Z,3.08
2023-02-18T09:36:48.968Z,5.43
2023-02-18T09:39:34.178Z,5.78
2023-02-18T09:42:24.584Z,5.30
2023-02-18T09:45:13.431Z,9.75
2023-02-18T09:48:01.491Z,3.75
2023-02-18T09:50:52.619Z,7.85
2023-02-18T09:53:38.204Z,6.90
2023-02-18T09:56:31.503Z,4.15
2023-02-18T09:59:23.623Z,4.05
2023-02-18T10:02:17.479Z,3.05
2023-02-18T10:05:03.234Z,5.80
2023-02-18T10:07:51.640Z,1.23
2023-02-18T10:10:44.182Z,2.55
2023-02-18T10:13:33.107Z,2.00
2023-02-18T10:16:20.050Z,3.70
2023-02-18T10:19:14.637Z,1.38
2023-02-18T10:22:04.112Z,6.20
2023-02-18T10:25:02.193Z,4.45
2023-02-18T10:27:50.922Z,5.20
2023-02-18T10:30:42.251Z,2.70
2023-02-18T10:33:34.312Z,3.70
2023-02-18T10:36:45.829Z,2.88
2023-02-18T10:39:48.405Z,2.80
2023-02-18T10:42:40.265Z,1.45
2023-02-18T10:45:50.940Z,5.60
2023-02-18T10:58:33.657Z,2.50
2023-02-18T11:01:21.285Z,3.25
2023-02-18T11:04:19.016Z,4.43
2023-02-18T11:07:07.897Z,2.50
2023-02-18T11:09:56.186Z,4.10
2023-02-18T11:12:49.201Z,2.83
2023-02-18T11:15:35.881Z,6.53
2023-02-18T11:18:40.570Z,1.05
2023-02-18T11:21:34.774Z,3.28
2023-02-18T11:24:20.840Z,1.70
2023-02-18T11:27:21.748Z,1.90
2023-02-18T11:30:28.349Z,2.03
2023-02-18T11:33:32.917Z,3.15
2023-02-18T11:36:25.876Z,3.72
2023-02-18T11:39:28.515Z,3.05
2023-02-18T11:42:16.756Z,4.32
2023-02-18T11:45:05.151Z,3.63
2023-02-18T11:48:00.928Z,4.32
2023-02-18T11:50:52.577Z,4.88
2023-02-18T11:53:38.168Z,5.07
2023-02-18T11:56:24.023Z,3.97
2023-02-18T11:59:10.586Z,2.13
2023-02-18T12:02:05.241Z,5.53
2023-02-18T12:05:01.488Z,3.80
2023-02-18T12:07:52.562Z,2.30
2023-02-18T12:10:43.092Z,3.15
2023-02-18T12:13:35.730Z,5.35
2023-02-18T12:16:45.876Z,10.20
2023-02-18T12:19:54.031Z,3.28
2023-02-18T12:22:45.568Z,2.53
2023-02-18T12:26:06.333Z,4.35
2023-02-18T12:29:25.777Z,2.00
2023-02-18T12:32:30.237Z,2.10
2023-02-18T12:35:41.741Z,2.25
2023-02-18T12:38:50.813Z,3.05
2023-02-18T12:41:55.633Z,3.60
2023-02-18T12:45:32.584Z,2.53
2023-02-18T12:48:49.584Z,3.95
2023-02-18T12:51:40.805Z,5.68
2023-02-18T12:54:39.508Z,1.95
2023-02-18T12:57:39.115Z,3.80
2023-02-18T13:00:27.607Z,2.97
2023-02-18T13:03:47.665Z,3.38
2023-02-18T13:06:40.970Z,2.88
2023-02-18T13:09:51.533Z,2.83
2023-02-18T13:12:40.832Z,3.67
2023-02-18T13:15:44.233Z,1.50
2023-02-18T13:18:37.833Z,4.82
2023-02-18T13:21:24.070Z,6.90
2023-02-18T13:24:18.626Z,2.13
2023-02-18T13:27:07.288Z,2.17
2023-02-18T13:29:52.711Z,3.75
2023-02-18T13:33:06.089Z,2.70
2023-02-18T13:36:05.997Z,3.85
2023-02-18T13:38:56.731Z,1.20
2023-02-18T13:41:43.044Z,1.77
2023-02-18T13:44:29.050Z,2.72
2023-02-18T13:47:41.793Z,3.58
2023-02-18T13:50:31.444Z,4.80
2023-02-18T13:53:22.520Z,2.45
2023-02-18T13:56:20.258Z,0.90
2023-02-18T13:59:17.707Z,3.88
2023-02-18T14:02:22.141Z,7.07
2023-02-18T14:05:07.237Z,1.55
2023-02-18T14:08:07.357Z,2.47
2023-02-18T14:11:16.293Z,1.15
2023-02-18T14:14:31.663Z,3.60
2023-02-18T14:17:20.023Z,2.80
2023-02-18T14:20:05.655Z,3.65
2023-02-18T14:22:52.867Z,4.18
2023-02-18T14:25:41.430Z,5.25
2023-02-18T14:28:40.653Z,8.57
2023-02-18T14:31:35.379Z,5.05
2023-02-18T14:34:24.033Z,17.25
2023-02-18T14:37:15.700Z,3.85
2023-02-18T14:40:39.135Z,4.82
2023-02-18T14:43:46.335Z,2.92
2023-02-18T14:47:02.691Z,15.27
2023-02-18T14:49:52.304Z,2.25
2023-02-18T14:52:43.274Z,4.75
2023-02-18T14:55:32.656Z,8.13
2023-02-18T14:58:32.653Z,4.20
2023-02-18T15:01:22.085Z,2.10
2023-02-18T15:04:07.645Z,2.97
2023-02-18T15:07:05.458Z,3.78
2023-02-18T15:09:54.777Z,2.15
2023-02-18T15:12:41.918Z,1.27
2023-02-18T15:15:27.751Z,3.88
2023-02-18T15:18:35.041Z,1.98
2023-02-18T15:21:27.015Z,5.45
2023-02-18T15:24:30.355Z,5.85
2023-02-18T15:27:20.031Z,1.85
2023-02-18T15:30:20.944Z,2.95
2023-02-18T15:33:13.073Z,2.00
2023-02-18T15:36:06.416Z,6.50
2023-02-18T15:38:51.846Z,6.90
2023-02-18T15:41:37.384Z,2.30
2023-02-18T15:44:27.359Z,3.28
2023-02-18T15:47:14.503Z,2.88
2023-02-18T15:50:03.549Z,3.08
2023-02-18T15:52:50.315Z,2.13
2023-02-18T15:55:41.578Z,2.33
2023-02-18T15:58:30.005Z,4.07
2023-02-18T16:01:27.713Z,1.52
2023-02-18T16:04:15.264Z,2.83
2023-02-18T16:07:04.861Z,3.97
2023-02-18T16:09:51.142Z,2.83
2023-02-18T16:12:39.789Z,2.58
2023-02-18T16:15:29.099Z,2.58
2023-02-18T16:18:40.460Z,2.63
2023-02-18T16:21:43.867Z,6.05
2023-02-18T16:24:33.094Z,3.30
2023-02-18T16:27:18.706Z,1.73
2023-02-18T16:30:17.016Z,8.65
2023-02-18T16:33:02.977Z,15.43
2023-02-18T16:35:50.541Z,11.50
2023-02-18T16:38:36.617Z,3.53
2023-02-18T16:41:22.315Z,3.50
2023-02-18T16:44:14.681Z,2.58
2023-02-18T16:47:00.891Z,3.25
2023-02-18T16:49:50.130Z,4.43
2023-02-18T16:52:37.777Z,3.75
2023-02-18T16:55:27.644Z,5.90
2023-02-18T16:58:13.561Z,1.60
2023-02-18T17:00:58.927Z,4.90
2023-02-18T17:03:47.218Z,4.10
2023-02-18T17:06:34.098Z,2.80
2023-02-18T17:09:25.894Z,2.05
2023-02-18T17:12:12.311Z,2.33
2023-02-18T17:14:57.521Z,2.33
2023-02-18T17:17:42.936Z,5.13
2023-02-18T17:20:30.958Z,3.35
2023-02-18T17:23:22.852Z,5.97
2023-02-18T17:26:26.992Z,4.22
2023-02-18T17:29:12.728Z,3.08
2023-02-18T17:31:59.533Z,3.33
2023-02-18T17:34:45.020Z,4.30
2023-02-18T17:37:30.769Z,2.65
2023-02-18T17:40:18.446Z,2.28
2023-02-18T17:43:04.203Z,2.35
2023-02-18T17:45:53.174Z,3.58
2023-02-18T17:48:39.546Z,2.88
2023-02-18T17:51:29.748Z,4.05
2023-02-18T17:54:20.300Z,2.47
2023-02-18T17:57:05.748Z,2.70
2023-02-18T17:59:51.166Z,4.32
2023-02-18T18:02:36.705Z,4.63
2023-02-18T18:05:34.849Z,3.15
2023-02-18T18:08:20.314Z,1.95
2023-02-18T18:11:06.136Z,3.53
2023-02-18T18:13:53.032Z,3.22
2023-02-18T18:16:38.324Z,3.22
2023-02-18T18:19:23.724Z,3.10
2023-02-18T18:22:09.415Z,2.80
2023-02-18T18:24:54.777Z,2.22
2023-02-18T18:27:40.596Z,1.10
2023-02-18T18:30:28.829Z,5.50
2023-02-18T18:33:30.349Z,3.13
2023-02-18T18:36:16.993Z,7.05
2023-02-18T18:39:03.032Z,2.60
2023-02-18T18:41:48.538Z,3.10
2023-02-18T18:44:33.923Z,5.70
2023-02-18T18:47:20.047Z,5.63
2023-02-18T18:50:05.758Z,10.00
2023-02-18T18:52:53.434Z,10.80
2023-02-18T18:55:40.707Z,14.85
2023-02-18T19:26:14.624Z,3.50
2023-02-18T19:29:01.123Z,3.85
2023-02-18T19:31:46.739Z,4.82
2023-02-18T19:34:32.168Z,3.25
2023-02-18T19:37:17.566Z,2.95
2023-02-18T19:40:06.708Z,2.03
2023-02-18T19:42:52.991Z,4.15
2023-02-18T19:45:44.445Z,5.90
2023-02-18T19:48:30.031Z,2.75
2023-02-18T19:51:15.346Z,5.35
2023-02-18T19:54:00.838Z,8.32
2023-02-18T19:56:46.825Z,6.00
2023-02-18T19:59:32.248Z,2.17
2023-02-18T20:02:21.135Z,5.55
2023-02-18T20:05:08.623Z,7.45
2023-02-18T20:07:54.354Z,7.50
2023-02-18T20:10:39.832Z,5.13
2023-02-18T20:13:25.159Z,8.00
2023-02-18T20:16:11.733Z,6.18
2023-02-18T20:18:57.855Z,4.93
2023-02-18T20:21:43.217Z,4.32
2023-02-18T20:24:30.205Z,6.75
2023-02-18T20:27:16.183Z,6.13
2023-02-18T20:30:01.507Z,4.38
2023-02-18T20:32:47.274Z,3.75
2023-02-18T20:35:33.874Z,9.63
2023-02-18T20:38:19.794Z,8.75
2023-02-18T20:41:11.889Z,6.32
2023-02-18T20:44:00.749Z,10.98
2023-02-18T20:46:49.017Z,10.85
2023-02-18T20:49:35.489Z,5.70
2023-02-18T20:52:20.972Z,5.13
2023-02-18T20:55:06.704Z,6.65
2023-02-18T20:57:52.580Z,7.60
2023-02-18T21:00:38.055Z,7.28
2023-02-18T21:03:24.419Z,9.00
2023-02-18T21:06:16.405Z,7.55
2023-02-18T21:09:02.115Z,8.35
2023-02-18T21:11:48.318Z,5.00
2023-02-18T21:14:34.078Z,7.10
2023-02-18T21:17:19.599Z,11.57
2023-02-18T21:20:05.531Z,6.88
2023-02-18T21:22:50.914Z,8.77
2023-02-18T21:25:38.337Z,13.68
2023-02-18T21:28:24.186Z,19.90
2023-02-18T21:31:24.978Z,21.08
2023-02-18T21:34:13.407Z,14.38
2023-02-18T21:37:00.449Z,24.95
2023-02-18T21:39:50.559Z,24.15
2023-02-18T21:42:37.433Z,20.80
2023-02-18T21:45:23.758Z,27.23
2023-02-18T21:48:27.635Z,28.42
2023-02-18T21:51:32.872Z,53.22
2023-02-18T21:54:25.993Z,46.47
2023-02-18T21:57:20.018Z,80.13
2023-02-18T22:00:19.568Z,56.53
2023-02-18T22:03:05.778Z,66.88
2023-02-18T22:05:51.424Z,83.25
2023-02-18T22:08:36.861Z,57.28
2023-02-18T22:11:22.303Z,25.95
2023-02-18T22:14:08.706Z,34.58
2023-02-18T22:16:54.250Z,26.23
2023-02-18T22:19:40.034Z,35.33
2023-02-18T22:22:25.740Z,12.52
2023-02-18T22:25:11.147Z,8.38
2023-02-18T22:27:56.510Z,5.97
2023-02-18T22:30:42.172Z,9.32
2023-02-18T22:33:27.557Z,10.27
2023-02-18T22:36:13.496Z,8.77
2023-02-18T22:39:00.500Z,8.25
2023-02-18T22:41:46.142Z,8.38
2023-02-18T22:44:31.621Z,11.07
2023-02-18T22:47:17.004Z,6.85
2023-02-18T22:50:02.890Z,9.13
2023-02-18T22:52:48.450Z,5.63
2023-02-18T22:55:33.931Z,15.90
2023-02-18T22:58:19.417Z,13.05
2023-02-18T23:01:06.864Z,29.98
2023-02-18T23:03:53.344Z,35.85
2023-02-18T23:06:41.191Z,29.38
2023-02-18T23:09:26.720Z,24.35
2023-02-18T23:12:12.432Z,35.67
2023-02-18T23:14:58.103Z,25.88
2023-02-18T23:17:43.702Z,16.67
2023-02-18T23:20:47.908Z,15.20
2023-02-18T23:23:37.017Z,20.92
2023-02-18T23:26:25.592Z,19.90
2023-02-18T23:29:10.944Z,14.52
2023-02-18T23:31:56.419Z,15.77
2023-02-18T23:34:42.906Z,10.40
2023-02-18T23:37:51.201Z,10.65
2023-02-18T23:40:36.813Z,6.50
2023-02-18T23:43:22.288Z,7.72
2023-02-18T23:46:07.821Z,7.55
2023-02-18T23:48:53.677Z,10.82
2023-02-18T23:51:39.213Z,4.70
2023-02-18T23:54:25.016Z,10.45
2023-02-18T23:57:10.318Z,8.77
2023-02-18T23:59:55.605Z,6.03
